Time;durP1;ratioP1;P1;durP2;ratioP2;P2;SDS_P1;SDS_P2;PMS_P1;PMS_P2;Temp;Humidity;BMP_temperature;BMP_pressure;BME280_temperature;BME280_humidity;BME280_pressure;Samples;Min_cycle;Max_cycle;Signal;HPM_P1;HPM_P2
2021/04/23 00:00:55;;;;;;;18.70;14.95;;;;;;;7.45;100.00;99218.00;1785455;79;20979;-66
2021/04/23 00:03:50;;;;;;;23.38;17.60;;;;;;;7.41;100.00;99208.84;1783843;79;21030;-63
2021/04/23 00:06:31;;;;;;;21.42;15.63;;;;;;;7.38;100.00;99218.67;1792631;79;20959;-63
2021/04/23 00:09:19;;;;;;;20.02;15.63;;;;;;;7.41;100.00;99228.87;1743711;81;21980;-63
2021/04/23 00:12:05;;;;;;;19.12;15.50;;;;;;;7.37;100.00;99231.19;1742342;81;20975;-64
2021/04/23 00:14:46;;;;;;;20.97;14.90;;;;;;;7.30;100.00;99227.89;1827866;76;22760;-63
2021/04/23 00:17:14;;;;;;;20.88;14.68;;;;;;;7.16;100.00;99234.03;1773116;79;21048;-64
2021/04/23 00:19:44;;;;;;;15.30;11.73;;;;;;;7.05;100.00;99241.55;1782754;79;21370;-64
2021/04/23 00:22:13;;;;;;;14.20;10.85;;;;;;;6.82;100.00;99237.13;1759513;79;21035;-63
2021/04/23 00:24:41;;;;;;;13.22;10.32;;;;;;;6.58;100.00;99261.70;1778900;79;20975;-63
2021/04/23 00:27:09;;;;;;;15.45;10.50;;;;;;;6.35;100.00;99265.22;1700558;83;21603;-63
2021/04/23 00:29:42;;;;;;;15.50;10.28;;;;;;;6.19;100.00;99262.71;1565785;91;20985;-65
2021/04/23 00:34:59;;;;;;;17.92;10.82;;;;;;;5.86;100.00;99272.05;1565017;91;21018;-63
2021/04/23 00:37:27;;;;;;;17.25;11.80;;;;;;;5.72;100.00;99278.63;1564502;90;20958;-62
2021/04/23 00:39:55;;;;;;;16.17;11.18;;;;;;;5.62;100.00;99280.52;1563414;90;21167;-63
2021/04/23 00:42:22;;;;;;;15.40;11.55;;;;;;;5.54;100.00;99284.84;1532267;93;21219;-63
2021/04/23 00:44:52;;;;;;;16.10;10.82;;;;;;;5.49;100.00;99298.03;1529065;89;22200;-64
2021/04/23 00:47:19;;;;;;;19.30;12.30;;;;;;;5.40;100.00;99269.58;1605488;83;21189;-63
2021/04/23 00:49:47;;;;;;;17.70;11.80;;;;;;;5.38;100.00;99282.29;1724230;82;20915;-63
2021/04/23 00:52:15;;;;;;;17.57;11.83;;;;;;;5.35;100.00;99304.04;1696862;82;21166;-63
2021/04/23 00:54:42;;;;;;;17.20;11.95;;;;;;;5.32;100.00;99300.51;1721063;82;21134;-63
2021/04/23 00:57:11;;;;;;;;;;;;;;;5.30;100.00;99313.22;1716687;82;21414;-63
2021/04/23 00:59:39;;;;;;;20.07;10.73;;;;;;;5.24;100.00;99308.29;1723334;82;20218;-64
2021/04/23 01:02:10;;;;;;;16.13;12.10;;;;;;;5.24;100.00;99320.76;1721461;81;21154;-63
2021/04/23 01:04:37;;;;;;;22.93;11.80;;;;;;;5.21;100.00;99326.53;1714989;82;21236;-64
2021/04/23 01:07:06;;;;;;;16.60;11.63;;;;;;;5.17;100.00;99332.84;1726178;82;21155;-64
2021/04/23 01:09:35;;;;;;;14.75;10.13;;;;;;;5.13;100.00;99330.31;1702777;82;21290;-65
2021/04/23 01:12:05;;;;;;;16.23;12.10;;;;;;;5.04;100.00;99332.45;1729406;82;21075;-64
2021/04/23 01:14:33;;;;;;;15.32;11.00;;;;;;;4.95;100.00;99339.13;1708050;82;21079;-64
2021/04/23 01:17:01;;;;;;;16.10;12.58;;;;;;;4.89;100.00;99342.66;1716942;82;20937;-66
2021/04/23 01:19:29;;;;;;;18.40;11.18;;;;;;;4.83;100.00;99344.38;1706633;82;20996;-63
2021/04/23 01:21:57;;;;;;;19.98;12.80;;;;;;;4.76;100.00;99343.63;1705091;82;21263;-64
2021/04/23 01:24:26;;;;;;;19.95;11.60;;;;;;;4.72;100.00;99347.23;1702444;82;21533;-64
2021/04/23 01:26:55;;;;;;;19.82;12.58;;;;;;;4.65;100.00;99343.02;1711939;82;20969;-63
2021/04/23 01:29:25;;;;;;;14.60;10.82;;;;;;;4.61;100.00;99353.81;1705407;82;21159;-64
2021/04/23 01:31:56;;;;;;;20.55;11.48;;;;;;;4.54;100.00;99357.05;1705025;82;21035;-64
2021/04/23 01:34:29;;;;;;;16.90;11.83;;;;;;;4.49;100.00;99353.19;1716164;82;22397;-65
2021/04/23 01:36:58;;;;;;;17.52;10.63;;;;;;;4.43;100.00;99351.39;1722246;82;21435;-64
2021/04/23 01:39:29;;;;;;;17.52;10.82;;;;;;;4.39;100.00;99345.43;1728459;82;21131;-64
2021/04/23 01:41:57;;;;;;;14.38;10.95;;;;;;;4.34;100.00;99354.58;1719268;82;21465;-62
2021/04/23 01:44:25;;;;;;;16.73;12.73;;;;;;;4.30;100.00;99360.30;1770582;80;21106;-63
2021/04/23 01:46:53;;;;;;;;;;;;;;;4.30;100.00;99360.82;1767474;80;21370;-62
2021/04/23 01:49:22;;;;;;;19.90;13.15;;;;;;;4.29;100.00;99360.53;1767990;79;20128;-63
2021/04/23 01:51:57;;;;;;;15.90;11.33;;;;;;;4.27;100.00;99359.94;1756612;80;20913;-63
2021/04/23 01:54:26;;;;;;;14.10;10.40;;;;;;;4.24;100.00;99349.75;1762525;80;21016;-63
2021/04/23 01:56:54;;;;;;;17.73;11.83;;;;;;;4.23;100.00;99365.38;1780138;79;21074;-63
2021/04/23 01:59:22;;;;;;;19.87;12.05;;;;;;;4.24;100.00;99366.50;1761680;79;22321;-63
2021/04/23 02:01:51;;;;;;;18.27;12.25;;;;;;;4.24;100.00;99358.52;1761473;79;21454;-63
2021/04/23 02:04:20;;;;;;;20.45;12.65;;;;;;;4.24;100.00;99359.86;1765631;80;21012;-63
2021/04/23 02:06:50;;;;;;;18.50;12.00;;;;;;;4.27;100.00;99364.73;1767452;79;20917;-63
2021/04/23 02:09:18;;;;;;;19.60;12.05;;;;;;;4.27;100.00;99366.05;1767744;80;21005;-64
2021/04/23 02:11:47;;;;;;;25.08;14.58;;;;;;;4.28;100.00;99365.53;1758358;80;21220;-63
2021/04/23 02:14:16;;;;;;;20.70;14.70;;;;;;;4.28;100.00;99362.88;1761759;80;21109;-62
2021/04/23 02:16:44;;;;;;;22.05;13.28;;;;;;;4.30;100.00;99362.15;1770045;80;20988;-62
2021/04/23 02:19:13;;;;;;;23.45;14.90;;;;;;;4.30;100.00;99357.64;1744147;80;20976;-64
2021/04/23 02:21:41;;;;;;;17.15;12.00;;;;;;;4.29;100.00;99362.67;1761316;79;21142;-63
2021/04/23 02:24:09;;;;;;;25.52;13.25;;;;;;;4.24;100.00;99361.19;1770023;80;21516;-64
2021/04/23 02:26:37;;;;;;;20.10;14.15;;;;;;;4.22;100.00;99361.91;1760532;80;21040;-63
2021/04/23 02:29:13;;;;;;;24.67;12.90;;;;;;;4.19;100.00;99357.04;1771519;80;21530;-63
2021/04/23 02:31:46;;;;;;;18.77;12.10;;;;;;;4.20;100.00;99351.20;1771164;79;21415;-63
2021/04/23 02:34:17;;;;;;;20.62;12.65;;;;;;;4.18;100.00;99343.95;1779092;79;21546;-65
2021/04/23 02:36:45;;;;;;;16.45;10.98;;;;;;;4.16;100.00;99346.02;1767562;80;22061;-64
2021/04/23 02:39:15;;;;;;;19.35;14.03;;;;;;;4.16;100.00;99344.69;1767045;80;21000;-62
2021/04/23 02:41:45;;;;;;;21.02;12.95;;;;;;;4.16;100.00;99348.67;1772158;80;21542;-63
2021/04/23 02:44:13;;;;;;;19.02;12.85;;;;;;;4.16;100.00;99345.50;1773526;80;21039;-63
2021/04/23 02:46:42;;;;;;;17.80;12.68;;;;;;;4.16;100.00;99342.03;1771046;80;20913;-63
2021/04/23 02:49:10;;;;;;;;;;;;;;;4.14;100.00;99340.10;1769206;79;21143;-64
2021/04/23 02:51:43;;;;;;;17.73;10.75;;;;;;;4.12;100.00;99338.20;1767576;79;20137;-64
2021/04/23 02:54:12;;;;;;;21.15;14.00;;;;;;;4.08;100.00;99339.94;1761090;80;20913;-63
2021/04/23 02:56:40;;;;;;;18.65;13.70;;;;;;;3.95;100.00;99345.89;1717504;82;20930;-63
2021/04/23 02:59:08;;;;;;;28.62;16.00;;;;;;;3.92;100.00;99347.13;1719524;82;21012;-63
2021/04/23 03:01:40;;;;;;;23.32;15.00;;;;;;;3.92;100.00;99352.94;1732707;82;21403;-63
2021/04/23 03:04:08;;;;;;;22.37;15.18;;;;;;;3.91;100.00;99359.28;1751877;80;21544;-63
2021/04/23 03:06:37;;;;;;;25.52;15.53;;;;;;;3.89;100.00;99352.84;1751479;80;21131;-64
2021/04/23 03:09:06;;;;;;;30.70;17.55;;;;;;;3.88;100.00;99359.20;1751218;80;21105;-63
2021/04/23 03:11:36;;;;;;;25.52;16.67;;;;;;;3.88;100.00;99361.05;1751550;80;21079;-63
2021/04/23 03:14:04;;;;;;;28.98;17.30;;;;;;;3.86;100.00;99361.25;1747007;80;22197;-64
2021/04/23 03:16:32;;;;;;;24.98;16.55;;;;;;;3.88;100.00;99365.03;1718105;82;21335;-64
2021/04/23 03:19:00;;;;;;;28.23;17.15;;;;;;;3.89;100.00;99367.97;1713382;82;20946;-63
2021/04/23 03:21:28;;;;;;;26.48;17.30;;;;;;;3.90;100.00;99370.42;1710797;82;28675;-64
2021/04/23 03:23:56;;;;;;;24.35;14.50;;;;;;;3.91;100.00;99373.89;1731147;82;21174;-63
2021/04/23 03:26:24;;;;;;;28.55;17.23;;;;;;;3.90;100.00;99373.08;1734718;82;21370;-63
2021/04/23 03:28:53;;;;;;;;;;;;;;;3.89;100.00;99374.09;1720319;82;21583;-64
2021/04/23 03:31:22;;;;;;;31.00;17.92;;;;;;;3.89;100.00;99378.08;1699773;84;20105;-64
2021/04/23 03:33:50;;;;;;;29.05;16.37;;;;;;;3.88;100.00;99379.11;1739128;80;21017;-64
2021/04/23 03:36:18;;;;;;;36.68;18.37;;;;;;;3.88;100.00;99384.95;1741160;81;20999;-64
2021/04/23 03:38:47;;;;;;;30.97;17.42;;;;;;;3.87;100.00;99382.78;1756791;80;22117;-66
2021/04/23 03:41:23;;;;;;;41.18;21.62;;;;;;;3.86;100.00;99386.48;1729317;82;21570;-64
2021/04/23 03:43:52;;;;;;;38.75;22.90;;;;;;;3.88;100.00;99393.72;1744667;82;20929;-63
2021/04/23 03:46:20;;;;;;;31.35;18.85;;;;;;;3.86;100.00;99395.25;1728279;82;21494;-63
2021/04/23 03:48:49;;;;;;;26.65;15.75;;;;;;;3.89;100.00;99403.30;1745333;82;21165;-63
2021/04/23 03:51:18;;;;;;;21.35;13.95;;;;;;;3.92;100.00;99402.06;1745338;81;21456;-63
2021/04/23 03:53:47;;;;;;;20.62;12.95;;;;;;;3.93;100.00;99403.19;1738632;82;21056;-64
2021/04/23 03:56:16;;;;;;;25.23;14.35;;;;;;;3.95;100.00;99402.98;1712753;82;21000;-63
2021/04/23 03:58:44;;;;;;;;;;;;;;;3.97;100.00;99414.17;1731966;82;21127;-63
2021/04/23 04:01:20;;;;;;;413.75;127.38;;;;;;;3.99;100.00;99413.45;1738503;81;20573;-63
2021/04/23 04:03:49;;;;;;;457.10;147.55;;;;;;;4.03;100.00;99411.48;1739450;81;21396;-64
2021/04/23 04:06:16;;;;;;;;;;;;;;;4.09;100.00;99413.79;1717191;81;21514;-64
2021/04/23 04:08:52;;;;;;;535.10;182.22;;;;;;;4.16;100.00;99408.44;1743516;81;20158;-64
2021/04/23 04:11:21;;;;;;;395.35;134.95;;;;;;;4.21;100.00;99404.10;1703193;81;21064;-64
2021/04/23 04:13:50;;;;;;;296.43;110.80;;;;;;;4.22;100.00;99400.44;1748544;79;21158;-64
2021/04/23 04:16:19;;;;;;;204.43;87.40;;;;;;;4.27;100.00;99407.23;1687896;83;23182;-64
2021/04/23 04:18:47;;;;;;;68.62;34.00;;;;;;;4.30;100.00;99408.65;1672105;83;21018;-64
2021/04/23 04:21:16;;;;;;;41.15;24.25;;;;;;;4.35;100.00;99406.16;1787230;79;20985;-64
2021/04/23 04:23:45;;;;;;;19.42;11.53;;;;;;;4.43;100.00;99413.04;1770305;79;21047;-65
2021/04/23 04:26:13;;;;;;;19.70;15.33;;;;;;;4.48;100.00;99411.38;1740755;80;21134;-64
2021/04/23 04:28:41;;;;;;;18.65;11.22;;;;;;;4.54;100.00;99415.00;1742065;79;21436;-64
2021/04/23 04:31:10;;;;;;;17.57;13.88;;;;;;;4.58;100.00;99422.02;1776257;79;21502;-64
2021/04/23 04:33:39;;;;;;;17.65;14.00;;;;;;;4.61;100.00;99426.39;1763067;79;21064;-65
2021/04/23 04:36:08;;;;;;;;;;;;;;;4.66;100.00;99422.56;1765614;79;21446;-65
2021/04/23 04:38:36;;;;;;;16.60;12.65;;;;;;;4.69;100.00;99429.29;1755974;79;20181;-65
2021/04/23 04:41:05;;;;;;;13.88;9.95;;;;;;;4.66;100.00;99433.20;1775156;79;21199;-65
2021/04/23 04:43:33;;;;;;;13.43;9.75;;;;;;;4.65;100.00;99434.21;1744632;79;21166;-66
2021/04/23 04:46:03;;;;;;;18.00;10.28;;;;;;;4.66;100.00;99434.53;1758261;79;21150;-65
2021/04/23 04:48:32;;;;;;;22.62;13.95;;;;;;;4.69;100.00;99429.29;1758895;79;20897;-65
2021/04/23 04:51:01;;;;;;;20.85;14.20;;;;;;;4.69;100.00;99434.61;1785447;79;20949;-64
2021/04/23 04:53:29;;;;;;;;;;;;;;;4.70;100.00;99433.07;1713345;83;21208;-65
2021/04/23 04:55:58;;;;;;;26.02;20.15;;;;;;;4.71;100.00;99433.36;1740203;80;20709;-65
2021/04/23 04:58:30;;;;;;;33.13;23.12;;;;;;;4.71;100.00;99426.70;1769836;79;21004;-64
2021/04/23 05:00:58;;;;;;;21.82;11.50;;;;;;;4.73;100.00;99429.97;1768295;79;21110;-65
2021/04/23 05:03:26;;;;;;;28.73;24.90;;;;;;;4.80;100.00;99431.73;1780038;79;21095;-65
2021/04/23 05:05:54;;;;;;;19.73;12.20;;;;;;;4.86;100.00;99434.87;1701837;83;21214;-64
2021/04/23 05:08:22;;;;;;;17.07;12.70;;;;;;;4.87;100.00;99437.28;1767033;80;20888;-64
2021/04/23 05:10:51;;;;;;;17.05;13.62;;;;;;;4.93;100.00;99437.75;1766964;81;20917;-63
2021/04/23 05:13:19;;;;;;;16.40;11.28;;;;;;;4.97;100.00;99438.12;1767052;80;21525;-63
2021/04/23 05:15:48;;;;;;;16.73;11.12;;;;;;;5.02;100.00;99440.95;1738297;81;21191;-63
2021/04/23 05:18:16;;;;;;;16.35;10.93;;;;;;;4.99;100.00;99440.05;1729198;81;21288;-63
2021/04/23 05:20:44;;;;;;;45.20;28.47;;;;;;;5.10;100.00;99440.66;1763397;81;21487;-64
2021/04/23 05:23:13;;;;;;;40.00;22.35;;;;;;;5.21;100.00;99444.95;1760408;81;21039;-65
2021/04/23 05:25:41;;;;;;;;;;;;;;;5.25;100.00;99440.30;1766764;80;21035;-67
2021/04/23 05:28:09;;;;;;;14.50;11.13;;;;;;;5.34;100.00;99445.63;1759834;81;20128;-65
2021/04/23 05:30:37;;;;;;;14.35;10.25;;;;;;;5.46;100.00;99440.88;1761052;80;22125;-66
2021/04/23 05:33:08;;;;;;;10.20;8.90;;;;;;;5.58;100.00;99438.59;1760365;81;21003;-66
2021/04/23 05:35:39;;;;;;;9.33;7.62;;;;;;;5.66;100.00;99437.97;1761775;80;21522;-66
2021/04/23 05:38:08;;;;;;;11.57;8.78;;;;;;;5.65;100.00;99439.81;1708305;81;21518;-67
2021/04/23 05:40:45;;;;;;;11.50;8.08;;;;;;;5.65;100.00;99442.48;1712578;81;21122;-66
2021/04/23 05:43:14;;;;;;;13.60;8.23;;;;;;;5.75;100.00;99441.95;1761928;81;21428;-66
2021/04/23 05:45:45;;;;;;;37.42;27.25;;;;;;;5.87;100.00;99441.48;1759115;81;21043;-65
2021/04/23 05:48:16;;;;;;;14.63;10.18;;;;;;;5.80;100.00;99442.09;1757442;81;21016;-66
2021/04/23 05:50:45;;;;;;;14.80;8.80;;;;;;;5.82;100.00;99445.87;1756218;80;21177;-66
2021/04/23 05:53:14;;;;;;;13.70;10.15;;;;;;;5.92;100.00;99446.94;1729807;81;21196;-66
2021/04/23 05:55:42;;;;;;;12.70;7.78;;;;;;;5.98;100.00;99447.94;1756524;81;21203;-67
2021/04/23 05:58:11;;;;;;;12.70;6.97;;;;;;;5.92;100.00;99452.80;1759573;81;21045;-66
2021/04/23 06:00:43;;;;;;;;;;;;;;;5.99;100.00;99450.36;1765442;80;20901;-66
2021/04/23 06:03:11;;;;;;;14.73;8.33;;;;;;;6.13;100.00;99445.67;1738593;81;20151;-65
2021/04/23 06:05:40;;;;;;;9.55;8.55;;;;;;;6.11;100.00;99449.08;1736467;81;25998;-65
2021/04/23 06:08:12;;;;;;;12.03;6.40;;;;;;;6.13;100.00;99448.34;1759761;80;21205;-66
2021/04/23 06:10:46;;;;;;;10.30;7.72;;;;;;;6.21;100.00;99445.34;1754684;80;21239;-64
2021/04/23 06:13:16;;;;;;;11.10;7.53;;;;;;;6.36;100.00;99450.77;1763251;81;21004;-66
2021/04/23 07:14:11;;;;;;;7.53;4.97;;;;;;;9.17;100.00;99450.89;1734598;80;90498;-74
2021/04/23 07:16:46;;;;;;;9.05;4.62;;;;;;;9.60;100.00;99455.19;1725554;82;21204;-74
2021/04/23 07:19:17;;;;;;;11.00;7.12;;;;;;;9.86;100.00;99449.06;1761925;81;21153;-73
2021/04/23 07:21:49;;;;;;;17.20;9.08;;;;;;;10.06;100.00;99453.02;1772334;80;21027;-74
2021/04/23 07:28:35;;;;;;;;;;;;;;;;;;;;;
2021/04/23 07:42:19;;;;;;;16.70;8.03;;;;;;;10.01;100.00;99455.12;1775211;78;22098;-76
2021/04/23 07:44:49;;;;;;;17.92;9.30;;;;;;;10.38;100.00;99463.02;1726445;81;21134;-76
2021/04/23 07:47:19;;;;;;;17.25;8.68;;;;;;;10.43;100.00;99468.43;1722925;81;21380;-73
2021/04/23 07:49:51;;;;;;;11.30;7.00;;;;;;;10.65;100.00;99459.76;1678141;84;21251;-73
2021/04/23 07:52:32;;;;;;;11.05;6.42;;;;;;;10.76;100.00;99461.20;1819325;77;22772;-75
2021/04/23 07:55:02;;;;;;;9.40;6.95;;;;;;;10.38;100.00;99463.02;1756175;81;21719;-72
2021/04/23 08:00:35;;;;;;;11.65;6.05;;;;;;;11.15;94.79;99469.26;1819317;77;22801;-74
2021/04/23 08:03:03;;;;;;;15.85;5.78;;;;;;;11.40;89.12;99465.09;1755027;81;21124;-74
2021/04/23 08:05:35;;;;;;;13.08;5.78;;;;;;;11.56;87.12;99448.48;1765827;81;21261;-75
2021/04/23 08:08:20;;;;;;;9.75;5.83;;;;;;;11.44;89.59;99458.64;1764778;81;20965;-73
2021/04/23 08:11:11;;;;;;;14.58;6.12;;;;;;;11.27;91.88;99456.14;1737893;81;21034;-74
2021/04/23 08:14:01;;;;;;;11.45;5.70;;;;;;;11.18;82.08;99476.52;1625427;87;21424;-75
2021/04/23 08:16:34;;;;;;;13.00;6.40;;;;;;;11.37;85.03;99473.14;1670980;85;20994;-75
2021/04/23 08:19:02;;;;;;;9.95;5.22;;;;;;;11.36;85.84;99464.79;1644225;87;21170;-77
2021/04/23 08:21:32;;;;;;;14.40;5.97;;;;;;;11.32;87.84;99470.43;1649264;85;21180;-76
2021/04/23 08:24:15;;;;;;;19.42;6.62;;;;;;;11.40;86.39;99465.09;1846606;77;22683;-74
2021/04/23 08:26:43;;;;;;;14.78;6.60;;;;;;;10.82;88.42;99466.33;1822850;78;20949;-74
2021/04/23 08:29:12;;;;;;;18.35;6.47;;;;;;;10.83;87.74;99462.60;1823149;78;21193;-75
2021/04/23 08:31:43;;;;;;;12.00;5.95;;;;;;;11.15;83.44;99481.34;1822931;78;21040;-75
2021/04/23 08:34:13;;;;;;;11.85;5.00;;;;;;;11.13;81.38;99473.27;1822894;78;21036;-76
2021/04/23 08:36:42;;;;;;;9.93;5.08;;;;;;;11.34;84.56;99470.98;1822916;78;21122;-75
2021/04/23 08:39:11;;;;;;;;;;;;;;;11.27;81.04;99473.09;1824944;78;21074;-75
2021/04/23 08:42:03;;;;;;;11.50;5.50;;;;;;;10.97;78.37;99476.38;1792924;78;20211;-74
2021/04/23 08:58:16;;;;;;;10.18;5.30;;;;;;;11.55;69.93;99483.17;1806420;78;22031;-76
2021/04/23 09:00:49;;;;;;;22.20;7.08;;;;;;;11.49;69.58;99486.89;1745968;81;21038;-75
2021/04/23 16:56:03;;;;;;;17.42;9.25;;;;;;;8.10;56.97;99372.44;1617696;87;21254;-69
2021/04/23 16:59:26;;;;;;;12.55;7.92;;;;;;;8.03;57.65;99374.98;1552832;90;21197;-70
2021/04/23 19:22:02;;;;;;;9.68;5.20;;;;;;;3.87;93.18;99463.77;1637511;86;21463;-71
2021/04/23 19:24:35;;;;;;;9.18;5.28;;;;;;;3.77;94.94;99468.72;1656176;84;21222;-74
2021/04/23 19:27:04;;;;;;;5.90;4.72;;;;;;;3.65;94.94;99467.27;1643515;84;21158;-73
2021/04/23 19:29:35;;;;;;;6.87;4.70;;;;;;;3.55;95.71;99461.08;1672065;83;21603;-72
2021/04/23 19:32:04;;;;;;;7.20;5.20;;;;;;;3.55;95.89;99464.22;1662105;83;21328;-70
2021/04/23 19:34:38;;;;;;;6.22;5.08;;;;;;;3.58;94.87;99461.98;1658081;85;21364;-72
2021/04/23 19:37:08;;;;;;;10.15;5.65;;;;;;;3.56;94.40;99456.58;1675061;84;21207;-72
2021/04/23 19:39:38;;;;;;;8.80;5.90;;;;;;;3.47;95.26;99453.33;1673885;85;21888;-72
2021/04/23 19:42:06;;;;;;;10.48;5.22;;;;;;;3.43;95.50;99456.92;1658942;85;21214;-72
2021/04/23 19:44:34;;;;;;;7.65;6.10;;;;;;;3.37;96.02;99464.90;1660115;84;21152;-73
2021/04/23 19:47:04;;;;;;;7.53;5.73;;;;;;;3.37;95.44;99459.08;1648192;84;21759;-72
2021/04/23 19:49:32;;;;;;;9.18;6.28;;;;;;;3.40;95.62;99465.28;1660722;83;21230;-71
2021/04/23 19:52:00;;;;;;;11.22;7.22;;;;;;;3.43;95.26;99454.79;1648900;85;21735;-71
2021/04/23 19:54:34;;;;;;;21.15;12.28;;;;;;;3.43;95.58;99458.77;1662840;84;21694;-71
2021/04/23 19:57:03;;;;;;;23.62;14.18;;;;;;;3.38;95.69;99455.91;1650961;85;21146;-72
2021/04/23 19:59:35;;;;;;;24.12;12.37;;;;;;;3.42;95.49;99457.12;1666052;85;21268;-72
2021/04/23 20:02:10;;;;;;;18.42;10.38;;;;;;;3.43;95.80;99466.73;1662824;83;21147;-73
2021/04/23 20:04:47;;;;;;;15.90;9.10;;;;;;;3.42;95.78;99465.09;1651918;85;21230;-73
2021/04/23 20:07:15;;;;;;;13.90;8.80;;;;;;;3.42;95.35;99468.55;1646710;85;21183;-73
2021/04/23 20:09:58;;;;;;;10.45;7.12;;;;;;;3.44;95.22;99469.67;1618947;86;21189;-73
2021/04/23 20:12:45;;;;;;;17.55;9.88;;;;;;;3.59;93.54;99466.25;1633984;85;21390;-72
2021/04/23 20:15:14;;;;;;;18.98;10.40;;;;;;;3.74;93.20;99471.29;1622063;86;25792;-73
2021/04/23 20:17:43;;;;;;;19.85;12.90;;;;;;;3.71;94.02;99472.23;1630799;86;21179;-72
2021/04/23 20:20:15;;;;;;;25.65;13.70;;;;;;;3.61;95.12;99475.34;1630627;86;21695;-72
